sensor_id;sensor_type;location;lat;lon;timestamp;P1;durP1;ratioP1;P2;durP2;ratioP2
11422;SDS011;5768;51.476;7.210;2022-07-12T00:02:06;3.97;;;3.58;;
11422;SDS011;5768;51.476;7.210;2022-07-12T00:05:08;5.18;;;3.55;;
11422;SDS011;5768;51.476;7.210;2022-07-12T00:08:11;3.90;;;3.30;;
11422;SDS011;5768;51.476;7.210;2022-07-12T00:11:14;3.83;;;3.42;;
11422;SDS011;5768;51.476;7.210;2022-07-12T00:14:16;3.70;;;3.30;;
11422;SDS011;5768;51.476;7.210;2022-07-12T00:17:18;4.53;;;4.13;;
11422;SDS011;5768;51.476;7.210;2022-07-12T00:20:20;4.10;;;3.47;;
11422;SDS011;5768;51.476;7.210;2022-07-12T00:23:23;4.63;;;3.70;;
11422;SDS011;5768;51.476;7.210;2022-07-12T00:26:25;3.90;;;3.38;;
11422;SDS011;5768;51.476;7.210;2022-07-12T00:29:28;3.78;;;3.47;;
11422;SDS011;5768;51.476;7.210;2022-07-12T00:32:30;3.45;;;3.00;;
11422;SDS011;5768;51.476;7.210;2022-07-12T00:35:33;3.58;;;3.17;;
11422;SDS011;5768;51.476;7.210;2022-07-12T00:38:36;4.07;;;3.05;;
11422;SDS011;5768;51.476;7.210;2022-07-12T00:41:38;5.88;;;3.00;;
11422;SDS011;5768;51.476;7.210;2022-07-12T00:44:40;4.32;;;3.60;;
11422;SDS011;5768;51.476;7.210;2022-07-12T00:47:43;3.92;;;3.20;;
11422;SDS011;5768;51.476;7.210;2022-07-12T00:50:48;3.95;;;3.55;;
11422;SDS011;5768;51.476;7.210;2022-07-12T00:53:51;4.53;;;3.92;;
11422;SDS011;5768;51.476;7.210;2022-07-12T00:56:57;4.55;;;3.70;;
11422;SDS011;5768;51.476;7.210;2022-07-12T00:59:59;3.70;;;3.35;;
11422;SDS011;5768;51.476;7.210;2022-07-12T01:03:02;4.50;;;4.10;;
11422;SDS011;5768;51.476;7.210;2022-07-12T01:06:06;4.07;;;3.60;;
11422;SDS011;5768;51.476;7.210;2022-07-12T01:09:10;4.10;;;3.70;;
11422;SDS011;5768;51.476;7.210;2022-07-12T01:12:15;3.78;;;3.47;;
11422;SDS011;5768;51.476;7.210;2022-07-12T01:15:19;4.30;;;3.80;;
11422;SDS011;5768;51.476;7.210;2022-07-12T01:18:23;5.05;;;3.95;;
11422;SDS011;5768;51.476;7.210;2022-07-12T01:21:27;4.35;;;3.80;;
11422;SDS011;5768;51.476;7.210;2022-07-12T01:24:36;4.07;;;3.72;;
11422;SDS011;5768;51.476;7.210;2022-07-12T01:27:38;4.75;;;4.30;;
11422;SDS011;5768;51.476;7.210;2022-07-12T01:30:40;4.13;;;3.70;;
11422;SDS011;5768;51.476;7.210;2022-07-12T01:33:42;3.78;;;3.47;;
11422;SDS011;5768;51.476;7.210;2022-07-12T01:36:45;4.13;;;3.83;;
11422;SDS011;5768;51.476;7.210;2022-07-12T01:39:49;4.38;;;3.50;;
11422;SDS011;5768;51.476;7.210;2022-07-12T01:42:54;4.07;;;3.67;;
11422;SDS011;5768;51.476;7.210;2022-07-12T01:45:56;4.00;;;3.70;;
11422;SDS011;5768;51.476;7.210;2022-07-12T01:48:58;4.65;;;4.00;;
11422;SDS011;5768;51.476;7.210;2022-07-12T01:52:01;3.85;;;3.55;;
11422;SDS011;5768;51.476;7.210;2022-07-12T01:55:06;5.50;;;3.60;;
11422;SDS011;5768;51.476;7.210;2022-07-12T01:58:09;4.35;;;4.05;;
11422;SDS011;5768;51.476;7.210;2022-07-12T02:01:21;4.60;;;4.20;;
11422;SDS011;5768;51.476;7.210;2022-07-12T02:04:24;4.70;;;4.30;;
11422;SDS011;5768;51.476;7.210;2022-07-12T02:07:27;5.05;;;4.60;;
11422;SDS011;5768;51.476;7.210;2022-07-12T02:10:31;4.85;;;4.45;;
11422;SDS011;5768;51.476;7.210;2022-07-12T02:13:33;5.15;;;4.75;;
11422;SDS011;5768;51.476;7.210;2022-07-12T02:16:35;4.80;;;4.40;;
11422;SDS011;5768;51.476;7.210;2022-07-12T02:19:37;5.82;;;5.10;;
11422;SDS011;5768;51.476;7.210;2022-07-12T02:22:40;5.10;;;4.70;;
11422;SDS011;5768;51.476;7.210;2022-07-12T02:25:43;6.03;;;5.15;;
11422;SDS011;5768;51.476;7.210;2022-07-12T02:28:45;5.88;;;4.93;;
11422;SDS011;5768;51.476;7.210;2022-07-12T02:31:48;5.57;;;5.05;;
11422;SDS011;5768;51.476;7.210;2022-07-12T02:34:50;6.95;;;4.88;;
11422;SDS011;5768;51.476;7.210;2022-07-12T02:37:52;5.13;;;4.60;;
11422;SDS011;5768;51.476;7.210;2022-07-12T02:40:56;5.50;;;4.50;;
11422;SDS011;5768;51.476;7.210;2022-07-12T02:43:58;4.50;;;4.10;;
11422;SDS011;5768;51.476;7.210;2022-07-12T02:47:01;5.15;;;4.32;;
11422;SDS011;5768;51.476;7.210;2022-07-12T02:50:03;5.00;;;3.88;;
11422;SDS011;5768;51.476;7.210;2022-07-12T02:53:07;5.05;;;4.03;;
11422;SDS011;5768;51.476;7.210;2022-07-12T02:56:12;5.28;;;4.00;;
11422;SDS011;5768;51.476;7.210;2022-07-12T02:59:14;5.03;;;4.13;;
11422;SDS011;5768;51.476;7.210;2022-07-12T03:02:16;5.05;;;4.22;;
11422;SDS011;5768;51.476;7.210;2022-07-12T03:05:19;6.32;;;5.13;;
11422;SDS011;5768;51.476;7.210;2022-07-12T03:08:21;6.60;;;5.90;;
11422;SDS011;5768;51.476;7.210;2022-07-12T03:11:24;6.75;;;5.50;;
11422;SDS011;5768;51.476;7.210;2022-07-12T03:14:26;6.07;;;5.50;;
11422;SDS011;5768;51.476;7.210;2022-07-12T03:17:29;6.07;;;5.43;;
11422;SDS011;5768;51.476;7.210;2022-07-12T03:20:31;5.65;;;5.15;;
11422;SDS011;5768;51.476;7.210;2022-07-12T03:23:33;6.03;;;5.43;;
11422;SDS011;5768;51.476;7.210;2022-07-12T03:26:37;6.18;;;5.00;;
11422;SDS011;5768;51.476;7.210;2022-07-12T03:29:39;5.18;;;4.68;;
11422;SDS011;5768;51.476;7.210;2022-07-12T03:32:42;5.38;;;4.80;;
11422;SDS011;5768;51.476;7.210;2022-07-12T03:35:44;5.63;;;5.13;;
11422;SDS011;5768;51.476;7.210;2022-07-12T03:38:47;4.93;;;4.53;;
11422;SDS011;5768;51.476;7.210;2022-07-12T03:41:50;4.80;;;4.40;;
11422;SDS011;5768;51.476;7.210;2022-07-12T03:44:52;5.20;;;4.70;;
11422;SDS011;5768;51.476;7.210;2022-07-12T03:47:55;5.35;;;4.50;;
11422;SDS011;5768;51.476;7.210;2022-07-12T03:50:57;6.13;;;4.38;;
11422;SDS011;5768;51.476;7.210;2022-07-12T03:53:59;5.30;;;4.47;;
11422;SDS011;5768;51.476;7.210;2022-07-12T03:57:03;7.05;;;4.80;;
11422;SDS011;5768;51.476;7.210;2022-07-12T04:00:14;5.05;;;4.40;;
11422;SDS011;5768;51.476;7.210;2022-07-12T04:03:17;5.32;;;4.55;;
11422;SDS011;5768;51.476;7.210;2022-07-12T04:06:19;5.90;;;4.18;;
11422;SDS011;5768;51.476;7.210;2022-07-12T04:09:21;4.75;;;4.30;;
11422;SDS011;5768;51.476;7.210;2022-07-12T04:12:24;5.50;;;4.80;;
11422;SDS011;5768;51.476;7.210;2022-07-12T04:15:27;4.80;;;4.40;;
11422;SDS011;5768;51.476;7.210;2022-07-12T04:18:29;5.18;;;4.75;;
11422;SDS011;5768;51.476;7.210;2022-07-12T04:21:31;5.18;;;4.70;;
11422;SDS011;5768;51.476;7.210;2022-07-12T04:24:33;6.28;;;5.07;;
11422;SDS011;5768;51.476;7.210;2022-07-12T04:27:37;6.13;;;5.10;;
11422;SDS011;5768;51.476;7.210;2022-07-12T04:30:39;5.05;;;4.57;;
11422;SDS011;5768;51.476;7.210;2022-07-12T04:33:43;5.15;;;4.40;;
11422;SDS011;5768;51.476;7.210;2022-07-12T04:36:45;5.80;;;5.30;;
11422;SDS011;5768;51.476;7.210;2022-07-12T04:39:49;5.15;;;4.75;;
11422;SDS011;5768;51.476;7.210;2022-07-12T04:42:52;5.30;;;4.35;;
11422;SDS011;5768;51.476;7.210;2022-07-12T04:45:55;4.53;;;4.13;;
11422;SDS011;5768;51.476;7.210;2022-07-12T04:48:57;5.20;;;4.57;;
11422;SDS011;5768;51.476;7.210;2022-07-12T04:51:59;6.28;;;4.65;;
11422;SDS011;5768;51.476;7.210;2022-07-12T04:55:04;10.00;;;9.00;;
11422;SDS011;5768;51.476;7.210;2022-07-12T04:58:09;5.00;;;4.60;;
11422;SDS011;5768;51.476;7.210;2022-07-12T05:01:11;5.25;;;4.70;;
11422;SDS011;5768;51.476;7.210;2022-07-12T05:04:13;5.13;;;3.95;;
11422;SDS011;5768;51.476;7.210;2022-07-12T05:07:15;4.60;;;4.20;;
11422;SDS011;5768;51.476;7.210;2022-07-12T05:10:18;3.83;;;3.53;;
11422;SDS011;5768;51.476;7.210;2022-07-12T05:13:21;4.57;;;4.18;;
11422;SDS011;5768;51.476;7.210;2022-07-12T05:16:23;4.50;;;3.58;;
11422;SDS011;5768;51.476;7.210;2022-07-12T05:19:25;4.65;;;4.00;;
11422;SDS011;5768;51.476;7.210;2022-07-12T05:22:28;5.32;;;3.88;;
11422;SDS011;5768;51.476;7.210;2022-07-12T05:25:30;4.70;;;4.22;;
11422;SDS011;5768;51.476;7.210;2022-07-12T05:28:33;4.40;;;3.90;;
11422;SDS011;5768;51.476;7.210;2022-07-12T05:31:35;3.85;;;3.55;;
11422;SDS011;5768;51.476;7.210;2022-07-12T05:34:37;4.65;;;3.72;;
11422;SDS011;5768;51.476;7.210;2022-07-12T05:37:40;6.93;;;3.90;;
11422;SDS011;5768;51.476;7.210;2022-07-12T05:40:42;4.68;;;4.28;;
11422;SDS011;5768;51.476;7.210;2022-07-12T05:43:45;4.32;;;3.92;;
11422;SDS011;5768;51.476;7.210;2022-07-12T05:46:48;7.30;;;4.78;;
11422;SDS011;5768;51.476;7.210;2022-07-12T05:49:50;3.83;;;3.53;;
11422;SDS011;5768;51.476;7.210;2022-07-12T05:52:52;4.25;;;3.95;;
11422;SDS011;5768;51.476;7.210;2022-07-12T05:56:11;4.45;;;3.90;;
11422;SDS011;5768;51.476;7.210;2022-07-12T05:59:16;5.95;;;3.88;;
11422;SDS011;5768;51.476;7.210;2022-07-12T06:02:18;5.53;;;3.40;;
11422;SDS011;5768;51.476;7.210;2022-07-12T06:05:20;5.45;;;3.70;;
11422;SDS011;5768;51.476;7.210;2022-07-12T06:08:22;15.50;;;5.72;;
11422;SDS011;5768;51.476;7.210;2022-07-12T06:11:25;6.40;;;3.60;;
11422;SDS011;5768;51.476;7.210;2022-07-12T06:14:28;3.80;;;3.10;;
11422;SDS011;5768;51.476;7.210;2022-07-12T06:17:30;3.22;;;2.92;;
11422;SDS011;5768;51.476;7.210;2022-07-12T06:20:34;3.80;;;2.90;;
11422;SDS011;5768;51.476;7.210;2022-07-12T06:23:36;5.25;;;3.42;;
11422;SDS011;5768;51.476;7.210;2022-07-12T06:26:38;5.13;;;3.38;;
11422;SDS011;5768;51.476;7.210;2022-07-12T06:29:42;16.90;;;5.28;;
11422;SDS011;5768;51.476;7.210;2022-07-12T06:32:48;2.83;;;2.50;;
11422;SDS011;5768;51.476;7.210;2022-07-12T06:35:50;5.07;;;2.80;;
11422;SDS011;5768;51.476;7.210;2022-07-12T06:39:02;5.13;;;2.63;;
11422;SDS011;5768;51.476;7.210;2022-07-12T06:42:04;5.45;;;4.25;;
11422;SDS011;5768;51.476;7.210;2022-07-12T06:45:09;3.55;;;3.25;;
11422;SDS011;5768;51.476;7.210;2022-07-12T06:48:11;4.53;;;3.80;;
11422;SDS011;5768;51.476;7.210;2022-07-12T06:51:13;4.00;;;3.60;;
11422;SDS011;5768;51.476;7.210;2022-07-12T06:54:15;4.25;;;3.20;;
11422;SDS011;5768;51.476;7.210;2022-07-12T06:57:17;4.72;;;3.45;;
11422;SDS011;5768;51.476;7.210;2022-07-12T07:00:21;3.03;;;2.72;;
11422;SDS011;5768;51.476;7.210;2022-07-12T07:03:24;3.47;;;3.17;;
11422;SDS011;5768;51.476;7.210;2022-07-12T07:06:26;3.15;;;2.90;;
11422;SDS011;5768;51.476;7.210;2022-07-12T07:09:28;3.60;;;3.30;;
11422;SDS011;5768;51.476;7.210;2022-07-12T07:12:30;4.00;;;3.60;;
11422;SDS011;5768;51.476;7.210;2022-07-12T07:15:33;4.18;;;3.72;;
11422;SDS011;5768;51.476;7.210;2022-07-12T07:18:36;5.35;;;3.70;;
11422;SDS011;5768;51.476;7.210;2022-07-12T07:21:38;5.70;;;3.97;;
11422;SDS011;5768;51.476;7.210;2022-07-12T07:24:40;4.18;;;3.75;;
11422;SDS011;5768;51.476;7.210;2022-07-12T07:27:43;5.40;;;3.50;;
11422;SDS011;5768;51.476;7.210;2022-07-12T07:30:47;3.80;;;3.40;;
11422;SDS011;5768;51.476;7.210;2022-07-12T07:33:54;4.45;;;3.53;;
11422;SDS011;5768;51.476;7.210;2022-07-12T07:36:57;4.65;;;3.42;;
11422;SDS011;5768;51.476;7.210;2022-07-12T07:39:59;4.10;;;3.30;;
11422;SDS011;5768;51.476;7.210;2022-07-12T07:43:01;4.55;;;3.50;;
11422;SDS011;5768;51.476;7.210;2022-07-12T07:46:05;4.43;;;3.60;;
11422;SDS011;5768;51.476;7.210;2022-07-12T07:49:07;3.60;;;2.97;;
11422;SDS011;5768;51.476;7.210;2022-07-12T07:52:09;3.55;;;2.75;;
11422;SDS011;5768;51.476;7.210;2022-07-12T07:55:11;2.78;;;2.55;;
11422;SDS011;5768;51.476;7.210;2022-07-12T07:58:14;4.53;;;4.10;;
11422;SDS011;5768;51.476;7.210;2022-07-12T08:01:18;5.28;;;4.82;;
11422;SDS011;5768;51.476;7.210;2022-07-12T08:04:21;4.88;;;3.28;;
11422;SDS011;5768;51.476;7.210;2022-07-12T08:07:23;6.03;;;4.05;;
11422;SDS011;5768;51.476;7.210;2022-07-12T08:10:26;3.58;;;2.75;;
11422;SDS011;5768;51.476;7.210;2022-07-12T08:13:28;2.88;;;2.67;;
11422;SDS011;5768;51.476;7.210;2022-07-12T08:16:31;3.25;;;2.72;;
11422;SDS011;5768;51.476;7.210;2022-07-12T08:19:35;3.03;;;2.72;;
11422;SDS011;5768;51.476;7.210;2022-07-12T08:22:42;4.13;;;2.72;;
11422;SDS011;5768;51.476;7.210;2022-07-12T08:25:45;3.70;;;2.67;;
11422;SDS011;5768;51.476;7.210;2022-07-12T08:28:47;3.17;;;2.70;;
11422;SDS011;5768;51.476;7.210;2022-07-12T08:31:50;3.53;;;2.78;;
11422;SDS011;5768;51.476;7.210;2022-07-12T08:34:53;3.28;;;3.03;;
11422;SDS011;5768;51.476;7.210;2022-07-12T08:37:55;2.75;;;2.50;;
11422;SDS011;5768;51.476;7.210;2022-07-12T08:40:58;4.80;;;2.83;;
11422;SDS011;5768;51.476;7.210;2022-07-12T08:44:00;5.55;;;3.00;;
11422;SDS011;5768;51.476;7.210;2022-07-12T08:47:04;18.75;;;13.98;;
11422;SDS011;5768;51.476;7.210;2022-07-12T08:50:10;3.78;;;2.80;;
11422;SDS011;5768;51.476;7.210;2022-07-12T08:53:14;8.50;;;7.75;;
11422;SDS011;5768;51.476;7.210;2022-07-12T08:56:29;5.10;;;2.72;;
11422;SDS011;5768;51.476;7.210;2022-07-12T08:59:32;3.17;;;2.10;;
11422;SDS011;5768;51.476;7.210;2022-07-12T09:02:44;3.40;;;2.80;;
11422;SDS011;5768;51.476;7.210;2022-07-12T09:05:49;3.03;;;1.80;;
11422;SDS011;5768;51.476;7.210;2022-07-12T09:08:53;2.05;;;1.75;;
11422;SDS011;5768;51.476;7.210;2022-07-12T09:11:56;4.47;;;2.58;;
11422;SDS011;5768;51.476;7.210;2022-07-12T09:15:09;1.80;;;1.70;;
11422;SDS011;5768;51.476;7.210;2022-07-12T09:18:23;2.03;;;1.63;;
11422;SDS011;5768;51.476;7.210;2022-07-12T09:21:28;1.77;;;1.60;;
11422;SDS011;5768;51.476;7.210;2022-07-12T09:24:31;1.85;;;1.35;;
11422;SDS011;5768;51.476;7.210;2022-07-12T09:27:33;2.05;;;1.40;;
11422;SDS011;5768;51.476;7.210;2022-07-12T09:30:36;3.42;;;1.70;;
11422;SDS011;5768;51.476;7.210;2022-07-12T09:34:02;2.40;;;1.65;;
11422;SDS011;5768;51.476;7.210;2022-07-12T09:37:38;1.80;;;1.48;;
11422;SDS011;5768;51.476;7.210;2022-07-12T09:40:41;1.63;;;1.52;;
11422;SDS011;5768;51.476;7.210;2022-07-12T09:43:44;3.13;;;1.42;;
11422;SDS011;5768;51.476;7.210;2022-07-12T09:46:46;4.63;;;4.18;;
11422;SDS011;5768;51.476;7.210;2022-07-12T09:49:50;1.65;;;1.27;;
11422;SDS011;5768;51.476;7.210;2022-07-12T09:52:53;2.33;;;1.55;;
11422;SDS011;5768;51.476;7.210;2022-07-12T09:56:01;3.13;;;1.45;;
11422;SDS011;5768;51.476;7.210;2022-07-12T09:59:07;2.70;;;2.50;;
11422;SDS011;5768;51.476;7.210;2022-07-12T10:02:14;2.90;;;2.58;;
11422;SDS011;5768;51.476;7.210;2022-07-12T10:05:18;2.83;;;2.63;;
11422;SDS011;5768;51.476;7.210;2022-07-12T10:08:22;1.30;;;1.20;;
11422;SDS011;5768;51.476;7.210;2022-07-12T10:11:24;4.13;;;3.75;;
11422;SDS011;5768;51.476;7.210;2022-07-12T10:14:27;2.45;;;2.00;;
11422;SDS011;5768;51.476;7.210;2022-07-12T10:17:30;3.08;;;2.75;;
11422;SDS011;5768;51.476;7.210;2022-07-12T10:20:37;3.10;;;1.98;;
11422;SDS011;5768;51.476;7.210;2022-07-12T10:23:44;2.05;;;1.58;;
11422;SDS011;5768;51.476;7.210;2022-07-12T10:26:46;4.00;;;1.90;;
11422;SDS011;5768;51.476;7.210;2022-07-12T10:29:49;3.70;;;1.90;;
11422;SDS011;5768;51.476;7.210;2022-07-12T10:32:54;2.47;;;1.70;;
11422;SDS011;5768;51.476;7.210;2022-07-12T10:36:00;2.10;;;1.50;;
11422;SDS011;5768;51.476;7.210;2022-07-12T10:39:12;4.15;;;1.70;;
11422;SDS011;5768;51.476;7.210;2022-07-12T10:42:17;1.58;;;1.45;;
11422;SDS011;5768;51.476;7.210;2022-07-12T10:45:19;3.15;;;1.60;;
11422;SDS011;5768;51.476;7.210;2022-07-12T10:48:30;2.45;;;1.60;;
11422;SDS011;5768;51.476;7.210;2022-07-12T10:51:33;2.15;;;1.60;;
11422;SDS011;5768;51.476;7.210;2022-07-12T10:54:36;3.05;;;1.63;;
11422;SDS011;5768;51.476;7.210;2022-07-12T10:57:39;2.38;;;1.60;;
11422;SDS011;5768;51.476;7.210;2022-07-12T11:00:43;1.90;;;1.45;;
11422;SDS011;5768;51.476;7.210;2022-07-12T11:03:50;1.95;;;1.50;;
11422;SDS011;5768;51.476;7.210;2022-07-12T11:06:56;3.72;;;1.33;;
11422;SDS011;5768;51.476;7.210;2022-07-12T11:10:03;4.55;;;4.10;;
11422;SDS011;5768;51.476;7.210;2022-07-12T11:13:19;3.78;;;1.30;;
11422;SDS011;5768;51.476;7.210;2022-07-12T11:16:22;1.20;;;1.10;;
11422;SDS011;5768;51.476;7.210;2022-07-12T11:19:25;2.75;;;1.20;;
11422;SDS011;5768;51.476;7.210;2022-07-12T11:22:31;3.95;;;1.50;;
11422;SDS011;5768;51.476;7.210;2022-07-12T11:25:33;3.38;;;1.33;;
11422;SDS011;5768;51.476;7.210;2022-07-12T11:28:36;1.83;;;1.20;;
11422;SDS011;5768;51.476;7.210;2022-07-12T11:31:39;2.00;;;1.20;;
11422;SDS011;5768;51.476;7.210;2022-07-12T11:34:42;7.25;;;1.40;;
11422;SDS011;5768;51.476;7.210;2022-07-12T11:37:50;2.92;;;1.40;;
11422;SDS011;5768;51.476;7.210;2022-07-12T11:40:54;1.55;;;1.20;;
11422;SDS011;5768;51.476;7.210;2022-07-12T11:43:57;2.25;;;1.35;;
11422;SDS011;5768;51.476;7.210;2022-07-12T11:46:59;2.65;;;1.42;;
11422;SDS011;5768;51.476;7.210;2022-07-12T11:50:01;2.45;;;1.88;;
11422;SDS011;5768;51.476;7.210;2022-07-12T11:53:05;1.90;;;1.38;;
11422;SDS011;5768;51.476;7.210;2022-07-12T11:56:16;3.13;;;1.50;;
11422;SDS011;5768;51.476;7.210;2022-07-12T11:59:21;1.45;;;1.30;;
11422;SDS011;5768;51.476;7.210;2022-07-12T12:02:24;2.05;;;1.52;;
11422;SDS011;5768;51.476;7.210;2022-07-12T12:05:30;1.58;;;1.10;;
11422;SDS011;5768;51.476;7.210;2022-07-12T12:08:35;1.48;;;1.33;;
11422;SDS011;5768;51.476;7.210;2022-07-12T12:11:38;1.60;;;1.30;;
11422;SDS011;5768;51.476;7.210;2022-07-12T12:14:40;1.58;;;1.00;;
11422;SDS011;5768;51.476;7.210;2022-07-12T12:17:43;1.13;;;1.00;;
11422;SDS011;5768;51.476;7.210;2022-07-12T12:20:47;1.48;;;1.10;;
11422;SDS011;5768;51.476;7.210;2022-07-12T12:24:10;0.88;;;0.88;;
11422;SDS011;5768;51.476;7.210;2022-07-12T12:27:22;1.20;;;1.05;;
11422;SDS011;5768;51.476;7.210;2022-07-12T12:30:25;4.28;;;3.88;;
11422;SDS011;5768;51.476;7.210;2022-07-12T12:33:33;3.97;;;3.60;;
11422;SDS011;5768;51.476;7.210;2022-07-12T12:36:37;1.88;;;1.00;;
11422;SDS011;5768;51.476;7.210;2022-07-12T12:39:42;3.65;;;0.90;;
11422;SDS011;5768;51.476;7.210;2022-07-12T12:42:50;1.70;;;1.10;;
11422;SDS011;5768;51.476;7.210;2022-07-12T12:45:53;1.92;;;0.80;;
11422;SDS011;5768;51.476;7.210;2022-07-12T12:48:57;1.30;;;1.00;;
11422;SDS011;5768;51.476;7.210;2022-07-12T12:51:59;1.20;;;0.90;;
11422;SDS011;5768;51.476;7.210;2022-07-12T12:55:02;1.10;;;1.00;;
11422;SDS011;5768;51.476;7.210;2022-07-12T12:58:06;1.20;;;0.90;;
11422;SDS011;5768;51.476;7.210;2022-07-12T13:01:08;2.03;;;1.13;;
11422;SDS011;5768;51.476;7.210;2022-07-12T13:04:11;2.95;;;0.80;;
11422;SDS011;5768;51.476;7.210;2022-07-12T13:07:13;1.60;;;1.10;;
11422;SDS011;5768;51.476;7.210;2022-07-12T13:10:16;2.15;;;1.00;;
11422;SDS011;5768;51.476;7.210;2022-07-12T13:13:18;1.42;;;1.10;;
11422;SDS011;5768;51.476;7.210;2022-07-12T13:16:21;1.17;;;0.90;;
11422;SDS011;5768;51.476;7.210;2022-07-12T13:19:23;1.48;;;1.00;;
11422;SDS011;5768;51.476;7.210;2022-07-12T13:22:25;1.02;;;0.70;;
11422;SDS011;5768;51.476;7.210;2022-07-12T13:25:28;1.23;;;1.05;;
11422;SDS011;5768;51.476;7.210;2022-07-12T13:28:31;1.92;;;1.05;;
11422;SDS011;5768;51.476;7.210;2022-07-12T13:31:33;1.10;;;1.00;;
11422;SDS011;5768;51.476;7.210;2022-07-12T13:34:35;1.88;;;0.85;;
11422;SDS011;5768;51.476;7.210;2022-07-12T13:37:39;4.28;;;3.88;;
11422;SDS011;5768;51.476;7.210;2022-07-12T13:40:44;2.83;;;2.28;;
11422;SDS011;5768;51.476;7.210;2022-07-12T13:43:46;1.92;;;1.02;;
11422;SDS011;5768;51.476;7.210;2022-07-12T13:46:52;1.00;;;0.95;;
11422;SDS011;5768;51.476;7.210;2022-07-12T13:49:54;2.00;;;1.02;;
11422;SDS011;5768;51.476;7.210;2022-07-12T13:52:56;1.70;;;1.17;;
11422;SDS011;5768;51.476;7.210;2022-07-12T13:56:04;1.02;;;0.95;;
11422;SDS011;5768;51.476;7.210;2022-07-12T13:59:07;1.27;;;1.17;;
11422;SDS011;5768;51.476;7.210;2022-07-12T14:02:09;2.05;;;0.90;;
11422;SDS011;5768;51.476;7.210;2022-07-12T14:05:13;1.00;;;0.88;;
11422;SDS011;5768;51.476;7.210;2022-07-12T14:08:16;0.98;;;0.95;;
11422;SDS011;5768;51.476;7.210;2022-07-12T14:11:20;1.20;;;0.90;;
11422;SDS011;5768;51.476;7.210;2022-07-12T14:14:22;2.22;;;1.45;;
11422;SDS011;5768;51.476;7.210;2022-07-12T14:18:07;3.40;;;2.00;;
11422;SDS011;5768;51.476;7.210;2022-07-12T14:21:09;1.95;;;1.85;;
11422;SDS011;5768;51.476;7.210;2022-07-12T14:24:11;0.80;;;0.80;;
11422;SDS011;5768;51.476;7.210;2022-07-12T14:27:16;1.00;;;0.93;;
11422;SDS011;5768;51.476;7.210;2022-07-12T14:30:18;2.10;;;1.00;;
11422;SDS011;5768;51.476;7.210;2022-07-12T14:33:21;1.10;;;0.90;;
11422;SDS011;5768;51.476;7.210;2022-07-12T14:36:23;0.93;;;0.90;;
11422;SDS011;5768;51.476;7.210;2022-07-12T14:39:25;1.35;;;1.25;;
11422;SDS011;5768;51.476;7.210;2022-07-12T14:42:29;0.95;;;0.80;;
11422;SDS011;5768;51.476;7.210;2022-07-12T14:45:31;0.95;;;0.90;;
11422;SDS011;5768;51.476;7.210;2022-07-12T14:48:34;2.00;;;0.80;;
11422;SDS011;5768;51.476;7.210;2022-07-12T14:51:36;3.00;;;0.85;;
11422;SDS011;5768;51.476;7.210;2022-07-12T14:54:38;3.67;;;1.98;;
11422;SDS011;5768;51.476;7.210;2022-07-12T14:57:42;2.13;;;2.03;;
11422;SDS011;5768;51.476;7.210;2022-07-12T15:00:44;1.08;;;0.90;;
11422;SDS011;5768;51.476;7.210;2022-07-12T15:03:47;1.58;;;1.02;;
11422;SDS011;5768;51.476;7.210;2022-07-12T15:06:49;1.40;;;1.30;;
11422;SDS011;5768;51.476;7.210;2022-07-12T15:09:51;1.55;;;1.27;;
11422;SDS011;5768;51.476;7.210;2022-07-12T15:12:54;1.40;;;1.30;;
11422;SDS011;5768;51.476;7.210;2022-07-12T15:15:56;2.63;;;1.20;;
11422;SDS011;5768;51.476;7.210;2022-07-12T15:18:59;2.35;;;1.27;;
11422;SDS011;5768;51.476;7.210;2022-07-12T15:22:01;2.45;;;1.27;;
11422;SDS011;5768;51.476;7.210;2022-07-12T15:25:03;1.90;;;1.45;;
11422;SDS011;5768;51.476;7.210;2022-07-12T15:28:08;1.90;;;1.40;;
11422;SDS011;5768;51.476;7.210;2022-07-12T15:31:10;1.92;;;1.42;;
11422;SDS011;5768;51.476;7.210;2022-07-12T15:34:13;1.52;;;1.38;;
11422;SDS011;5768;51.476;7.210;2022-07-12T15:37:15;2.20;;;1.92;;
11422;SDS011;5768;51.476;7.210;2022-07-12T15:40:17;1.98;;;1.77;;
11422;SDS011;5768;51.476;7.210;2022-07-12T15:43:21;2.63;;;2.00;;
11422;SDS011;5768;51.476;7.210;2022-07-12T15:46:23;2.22;;;1.90;;
11422;SDS011;5768;51.476;7.210;2022-07-12T15:49:25;2.25;;;1.92;;
11422;SDS011;5768;51.476;7.210;2022-07-12T15:52:27;2.72;;;1.80;;
11422;SDS011;5768;51.476;7.210;2022-07-12T15:55:46;2.10;;;1.73;;
11422;SDS011;5768;51.476;7.210;2022-07-12T15:58:50;3.38;;;2.20;;
11422;SDS011;5768;51.476;7.210;2022-07-12T16:01:52;2.22;;;2.03;;
11422;SDS011;5768;51.476;7.210;2022-07-12T16:04:55;3.28;;;2.42;;
11422;SDS011;5768;51.476;7.210;2022-07-12T16:07:57;4.50;;;3.15;;
11422;SDS011;5768;51.476;7.210;2022-07-12T16:11:02;6.65;;;2.47;;
11422;SDS011;5768;51.476;7.210;2022-07-12T16:14:05;4.47;;;2.40;;
11422;SDS011;5768;51.476;7.210;2022-07-12T16:17:08;4.20;;;2.45;;
11422;SDS011;5768;51.476;7.210;2022-07-12T16:20:10;6.65;;;2.95;;
11422;SDS011;5768;51.476;7.210;2022-07-12T16:23:13;4.70;;;2.53;;
11422;SDS011;5768;51.476;7.210;2022-07-12T16:26:15;5.00;;;2.72;;
11422;SDS011;5768;51.476;7.210;2022-07-12T16:29:18;8.02;;;5.53;;
11422;SDS011;5768;51.476;7.210;2022-07-12T16:32:21;3.92;;;2.45;;
11422;SDS011;5768;51.476;7.210;2022-07-12T16:35:23;4.70;;;2.75;;
11422;SDS011;5768;51.476;7.210;2022-07-12T16:38:25;5.40;;;2.58;;
11422;SDS011;5768;51.476;7.210;2022-07-12T16:41:28;3.95;;;2.90;;
11422;SDS011;5768;51.476;7.210;2022-07-12T16:44:31;7.03;;;2.85;;
11422;SDS011;5768;51.476;7.210;2022-07-12T16:47:33;10.90;;;5.55;;
11422;SDS011;5768;51.476;7.210;2022-07-12T16:50:36;4.10;;;2.90;;
11422;SDS011;5768;51.476;7.210;2022-07-12T16:53:40;3.88;;;3.00;;
11422;SDS011;5768;51.476;7.210;2022-07-12T16:56:42;4.80;;;2.83;;
11422;SDS011;5768;51.476;7.210;2022-07-12T16:59:45;4.43;;;3.67;;
11422;SDS011;5768;51.476;7.210;2022-07-12T17:02:47;4.88;;;2.80;;
11422;SDS011;5768;51.476;7.210;2022-07-12T17:05:49;6.00;;;2.97;;
11422;SDS011;5768;51.476;7.210;2022-07-12T17:08:52;5.50;;;3.10;;
11422;SDS011;5768;51.476;7.210;2022-07-12T17:11:54;4.90;;;2.90;;
11422;SDS011;5768;51.476;7.210;2022-07-12T17:14:57;5.60;;;4.47;;
11422;SDS011;5768;51.476;7.210;2022-07-12T17:18:00;4.57;;;2.90;;
11422;SDS011;5768;51.476;7.210;2022-07-12T17:21:02;4.63;;;2.78;;
11422;SDS011;5768;51.476;7.210;2022-07-12T17:24:05;5.95;;;3.60;;
11422;SDS011;5768;51.476;7.210;2022-07-12T17:27:07;4.00;;;2.60;;
11422;SDS011;5768;51.476;7.210;2022-07-12T17:30:11;4.55;;;3.58;;
11422;SDS011;5768;51.476;7.210;2022-07-12T17:33:14;5.28;;;3.10;;
11422;SDS011;5768;51.476;7.210;2022-07-12T17:36:16;5.75;;;3.20;;
11422;SDS011;5768;51.476;7.210;2022-07-12T17:39:18;5.95;;;3.25;;
11422;SDS011;5768;51.476;7.210;2022-07-12T17:42:21;3.72;;;3.08;;
11422;SDS011;5768;51.476;7.210;2022-07-12T17:45:24;4.80;;;3.10;;
11422;SDS011;5768;51.476;7.210;2022-07-12T17:48:27;4.13;;;2.88;;
11422;SDS011;5768;51.476;7.210;2022-07-12T17:51:32;7.88;;;4.78;;
11422;SDS011;5768;51.476;7.210;2022-07-12T17:54:34;2.95;;;2.65;;
11422;SDS011;5768;51.476;7.210;2022-07-12T17:57:36;4.05;;;2.85;;
11422;SDS011;5768;51.476;7.210;2022-07-12T18:00:40;9.40;;;3.20;;
11422;SDS011;5768;51.476;7.210;2022-07-12T18:03:44;4.95;;;3.20;;
11422;SDS011;5768;51.476;7.210;2022-07-12T18:06:51;5.97;;;3.03;;
11422;SDS011;5768;51.476;7.210;2022-07-12T18:09:53;10.40;;;3.45;;
11422;SDS011;5768;51.476;7.210;2022-07-12T18:12:55;5.28;;;2.85;;
11422;SDS011;5768;51.476;7.210;2022-07-12T18:16:16;5.47;;;2.80;;
11422;SDS011;5768;51.476;7.210;2022-07-12T18:19:18;3.17;;;2.60;;
11422;SDS011;5768;51.476;7.210;2022-07-12T18:22:21;2.90;;;2.58;;
11422;SDS011;5768;51.476;7.210;2022-07-12T18:25:23;9.35;;;2.80;;
11422;SDS011;5768;51.476;7.210;2022-07-12T18:28:25;4.65;;;2.67;;
11422;SDS011;5768;51.476;7.210;2022-07-12T18:31:29;7.68;;;2.80;;
11422;SDS011;5768;51.476;7.210;2022-07-12T18:34:31;6.80;;;2.97;;
11422;SDS011;5768;51.476;7.210;2022-07-12T18:37:35;7.15;;;2.70;;
11422;SDS011;5768;51.476;7.210;2022-07-12T18:40:38;5.15;;;2.67;;
11422;SDS011;5768;51.476;7.210;2022-07-12T18:43:40;5.45;;;2.45;;